メインページ
METAR-TAF:

METAR-TAF

空港 :

パリ=シャルル・ド・ゴール空港

パリチャールズ・ドゴール, フランス

緯度: 49-01N, 経度: 002-32E, 海抜: 118m

現時点の気象観測

当レポートは29分前の15:30(UTC)に作成
の風 10kt
気温 8°C
湿度 71%
気圧 1028 hPa
視程10km以上
高度2000ftの雲はほとんどない
高度3800ftの千切れ雲あり

METAR: LFPG 181530Z 01010KT 9999 FEW020 BKN038 08/03 Q1028 NOSIG

時間: 16:59 (15:59 UTC)

予報

当レポートは4時間59分前の11:00(UTC)に作成
予報は18日の 12時(UTC)から 19日の 18時(UTC)まで有効
西の風 5kt
視程10km以上
1,500メートル以下は雲なし、積乱雲なし
確率 40% :
18日の 12時(UTC)から 18日の 15時(UTC)まで一時的に
高度1200ftの千切れ雲あり
確率 40% :
19日の 04時(UTC)から 19日の 07時(UTC)まで一時的に
視程: 3000m
19日の 11時(UTC)から 19日の 13時(UTC)まで徐々に
の風 15kt、最大25ktの突風を伴う
確率 30% :
19日の 14時(UTC)から 19日の 17時(UTC)まで一時的に
視程: 4000m
高度3000ftの雲は散在している, 塔状積雲.
弱いにわか雨

TAF: LFPG 181100Z 1812/1918 28005KT CAVOK TX08/1814Z TN01/1905Z PROB40 TEMPO 1812/1815 BKN012 PROB40 TEMPO 1904/1907 3000 BR BECMG 1911/1913 01015G25KT PROB30 TEMPO 1914/1917 4000 -SHRA SCT030TCU

4,000以上の空港の気象観測と天気予報(METAR報とTAF報)

利用可能な観測所は地図上に黄色い丸と赤い丸で示す。

丸の上にカーソルを重ねると観測所名を参照できる。

次にクリックすると気象観測と天気予報を参照できる。

マップの切り替え:黒色「×」印の緑ボタンをクリックして拡大、「-」印の緑ボタンをクリックして縮小、緑色の三角印をクリックして隣りの地図に切り替え


METAR-TAF: